Pintail — WDF5177 — position and weather

sailwx.info

Track history (hours):
 
Tides and Currents Weather Stations Pressure Air Temp Water Temp Dewpoint Dewpoint Depression Visibility Wind Speed Wind Dir Waves Ship Positions

Pintail

Owner: Pintail Marine Services, Inc, Friday Harbor, WA. More information available from US FCC via Universal Licensing System and Coast Guard Vessel Documentation Center.

Last reported at 2016-Oct-01 04:31 UTC. Time now 2016-Oct-01 07:01 UTC.
Position N 48°32' W 122°60'.

Length 19 m.

Type: Towing. MMSI: 367460260.

Date/timePositionNaut miles runAvg speedWind from/ knotsBaromVisibWave heightAir tempDewpointWater temp
2016-Oct-01 04:31N 48°32' W 122°60'0 0.0
2016-Oct-01 03:31N 48°32' W 122°60'0 0.0
2016-Oct-01 00:31N 48°32' W 122°60'0 0.0
2016-Sep-30 22:27N 48°32' W 122°60'1 0.7
2016-Sep-30 20:33N 48°32' W 122°58'14 4.7
2016-Sep-30 17:30N 48°31' W 122°36'3 2.8
2016-Sep-30 16:16N 48°32' W 122°41'10 5.5
2016-Sep-30 14:33N 48°33' W 122°56'3 2.9
2016-Sep-30 13:28N 48°32' W 122°60'0 0.0
2016-Sep-30 10:31N 48°32' W 122°60'0 0.0
2016-Sep-30 08:31N 48°32' W 122°60'0 0.0
2016-Sep-30 06:31N 48°32' W 122°60'0 0.0
2016-Sep-30 03:33N 48°32' W 122°60'0 0.0
2016-Sep-30 02:30N 48°32' W 122°60'0 0.0
2016-Sep-29 23:30N 48°32' W 122°60'0 0.0
2016-Sep-29 21:30N 48°32' W 122°60'0 0.0
2016-Sep-29 20:33N 48°32' W 122°60'0 0.0
2016-Sep-29 19:33N 48°32' W 122°60'0 0.0
2016-Sep-29 16:31N 48°32' W 122°60'0 0.0
2016-Sep-29 15:31N 48°32' W 122°60'0 0.0
2016-Sep-29 14:28N 48°32' W 122°60'0 0.0
2016-Sep-29 13:31N 48°32' W 122°60'0 0.0
2016-Sep-29 08:31N 48°32' W 122°60'0 0.0
2016-Sep-29 07:31N 48°32' W 122°60'0 0.0
2016-Sep-29 00:31N 48°32' W 122°60'0 0.0
2016-Sep-28 21:31N 48°32' W 122°60'0 0.0
2016-Sep-28 19:31N 48°32' W 122°60'0 0.0
2016-Sep-28 16:31N 48°32' W 122°60'0 0.0
2016-Sep-28 15:31N 48°32' W 122°60'0 0.0
2016-Sep-28 12:31N 48°32' W 122°60'0 0.0
2016-Sep-28 08:31N 48°32' W 122°60'0 0.0
2016-Sep-28 03:33N 48°32' W 122°60'0 0.0
2016-Sep-28 02:30N 48°32' W 122°60'0 0.0
2016-Sep-28 01:33N 48°32' W 122°60'0 0.0
2016-Sep-27 23:33N 48°32' W 122°60'3 0.7
2016-Sep-27 19:33N 48°33' W 122°56'0 0.1
2016-Sep-27 14:32N 48°33' W 122°56'3 3.0
2016-Sep-27 13:31N 48°32' W 122°60'16 1.2
2016-Sep-27 00:33N 48°31' W 122°36'17 4.2
2016-Sep-26 20:33N 48°37' W 123°00'0 0.1
2016-Sep-26 19:30N 48°37' W 123°00'6 1.4
2016-Sep-26 15:31N 48°32' W 122°60'0 0.0
2016-Sep-26 13:31N 48°32' W 122°60'0 0.0
2016-Sep-26 11:31N 48°32' W 122°60'0 0.0
2016-Sep-26 08:28N 48°32' W 122°60'0 0.0
2016-Sep-26 02:31N 48°32' W 122°60'0 0.0
2016-Sep-26 01:31N 48°32' W 122°60'0 0.0
2016-Sep-26 00:31N 48°32' W 122°60'0 0.0
2016-Sep-25 21:31N 48°32' W 122°60'0 0.0
2016-Sep-25 17:28N 48°32' W 122°60'0 0.0
2016-Sep-25 16:31N 48°32' W 122°60'0 0.0
2016-Sep-25 15:22N 48°32' W 122°60'0 0.0
2016-Sep-25 14:32N 48°32' W 122°60'0 0.0
2016-Sep-25 12:25N 48°32' W 122°60'0 0.0
2016-Sep-25 11:31N 48°32' W 122°60'0 0.0
2016-Sep-25 10:31N 48°32' W 122°60'0 0.0
2016-Sep-25 09:31N 48°32' W 122°60'0 0.0
2016-Sep-25 07:33N 48°32' W 122°60'0 0.0
2016-Sep-25 04:31N 48°32' W 122°60'0 0.0
2016-Sep-25 00:32N 48°32' W 122°60'0 0.0
2016-Sep-24 22:32N 48°32' W 122°60'0 0.0
2016-Sep-24 21:32N 48°32' W 122°60'0 0.0
2016-Sep-24 19:32N 48°32' W 122°60'0 0.0
2016-Sep-24 18:32N 48°32' W 122°60'0 0.0
2016-Sep-24 17:32N 48°32' W 122°60'0 0.0
2016-Sep-24 16:32N 48°32' W 122°60'0 0.0
2016-Sep-24 14:32N 48°32' W 122°60'0 0.0
2016-Sep-24 12:32N 48°32' W 122°60'0 0.0
2016-Sep-24 10:32N 48°32' W 122°60'0 0.0
2016-Sep-24 09:32N 48°32' W 122°60'0 0.0
2016-Sep-24 03:32N 48°32' W 122°60'0 0.0
2016-Sep-24 02:32N 48°32' W 122°60'0 0.0
2016-Sep-24 01:32N 48°32' W 122°60'0 0.0
2016-Sep-24 00:32N 48°32' W 122°60'0 0.0
2016-Sep-23 19:32N 48°32' W 122°60'0 0.0
2016-Sep-23 17:32N 48°32' W 122°60'0 0.0
2016-Sep-23 16:32N 48°32' W 122°60'0 0.0
2016-Sep-23 15:30N 48°32' W 122°60'0 0.0
2016-Sep-23 13:32N 48°32' W 122°60'0 0.0
2016-Sep-23 09:32N 48°32' W 122°60'0 0.0
2016-Sep-23 06:32N 48°32' W 122°60'0 0.0
2016-Sep-23 04:32N 48°32' W 122°60'0 0.0
2016-Sep-23 03:32N 48°32' W 122°60'0 0.0
2016-Sep-23 02:32N 48°32' W 122°60'0 0.0
2016-Sep-23 01:32N 48°32' W 122°60'0 0.0
2016-Sep-23 00:31N 48°32' W 122°60'0 0.0
2016-Sep-22 23:31N 48°32' W 122°60'0 0.0
2016-Sep-22 20:31N 48°32' W 123°00'0 0.0
2016-Sep-22 12:32N 48°32' W 122°60'0 0.0
2016-Sep-22 04:32N 48°32' W 122°60'0 0.0
2016-Sep-22 03:32N 48°32' W 122°60'0 0.0
2016-Sep-22 00:32N 48°32' W 122°60'0 0.0
2016-Sep-21 23:32N 48°32' W 122°60'0 0.0
2016-Sep-21 22:32N 48°32' W 122°60'0 0.0
2016-Sep-21 19:33N 48°32' W 122°60'10 3.3
2016-Sep-21 16:32N 48°34' W 122°45'10 1.4
2016-Sep-21 09:32N 48°32' W 122°60'0 0.0
2016-Sep-21 08:32N 48°32' W 122°60'  
Track history (hours):
 
Tides and Currents Weather Stations Pressure Air Temp Water Temp Dewpoint Dewpoint Depression Visibility Wind Speed Wind Dir Waves Ship Positions

Pintail

Owner: Pintail Marine Services, Inc, Friday Harbor, WA. More information available from US FCC via Universal Licensing System and Coast Guard Vessel Documentation Center.

Last reported at 2016-Oct-01 04:31 UTC. Time now 2016-Oct-01 07:01 UTC.
Position N 48°32' W 122°60'.

Length 19 m.

Type: Towing. MMSI: 367460260.

Date/timePositionNaut miles runAvg speedWind from/ knotsBaromVisibWave heightAir tempDewpointWater temp
2016-Oct-01 04:31N 48°32' W 122°60'0 0.0
2016-Oct-01 03:31N 48°32' W 122°60'0 0.0
2016-Oct-01 00:31N 48°32' W 122°60'0 0.0
2016-Sep-30 22:27N 48°32' W 122°60'1 0.7
2016-Sep-30 20:33N 48°32' W 122°58'14 4.7
2016-Sep-30 17:30N 48°31' W 122°36'3 2.8
2016-Sep-30 16:16N 48°32' W 122°41'10 5.5
2016-Sep-30 14:33N 48°33' W 122°56'3 2.9
2016-Sep-30 13:28N 48°32' W 122°60'0 0.0
2016-Sep-30 10:31N 48°32' W 122°60'0 0.0
2016-Sep-30 08:31N 48°32' W 122°60'0 0.0
2016-Sep-30 06:31N 48°32' W 122°60'0 0.0
2016-Sep-30 03:33N 48°32' W 122°60'0 0.0
2016-Sep-30 02:30N 48°32' W 122°60'0 0.0
2016-Sep-29 23:30N 48°32' W 122°60'0 0.0
2016-Sep-29 21:30N 48°32' W 122°60'0 0.0
2016-Sep-29 20:33N 48°32' W 122°60'0 0.0
2016-Sep-29 19:33N 48°32' W 122°60'0 0.0
2016-Sep-29 16:31N 48°32' W 122°60'0 0.0
2016-Sep-29 15:31N 48°32' W 122°60'0 0.0
2016-Sep-29 14:28N 48°32' W 122°60'0 0.0
2016-Sep-29 13:31N 48°32' W 122°60'0 0.0
2016-Sep-29 08:31N 48°32' W 122°60'0 0.0
2016-Sep-29 07:31N 48°32' W 122°60'0 0.0
2016-Sep-29 00:31N 48°32' W 122°60'0 0.0
2016-Sep-28 21:31N 48°32' W 122°60'0 0.0
2016-Sep-28 19:31N 48°32' W 122°60'0 0.0
2016-Sep-28 16:31N 48°32' W 122°60'0 0.0
2016-Sep-28 15:31N 48°32' W 122°60'0 0.0
2016-Sep-28 12:31N 48°32' W 122°60'0 0.0
2016-Sep-28 08:31N 48°32' W 122°60'0 0.0
2016-Sep-28 03:33N 48°32' W 122°60'0 0.0
2016-Sep-28 02:30N 48°32' W 122°60'0 0.0
2016-Sep-28 01:33N 48°32' W 122°60'0 0.0
2016-Sep-27 23:33N 48°32' W 122°60'3 0.7
2016-Sep-27 19:33N 48°33' W 122°56'0 0.1
2016-Sep-27 14:32N 48°33' W 122°56'3 3.0
2016-Sep-27 13:31N 48°32' W 122°60'16 1.2
2016-Sep-27 00:33N 48°31' W 122°36'17 4.2
2016-Sep-26 20:33N 48°37' W 123°00'0 0.1
2016-Sep-26 19:30N 48°37' W 123°00'6 1.4
2016-Sep-26 15:31N 48°32' W 122°60'0 0.0
2016-Sep-26 13:31N 48°32' W 122°60'0 0.0
2016-Sep-26 11:31N 48°32' W 122°60'0 0.0
2016-Sep-26 08:28N 48°32' W 122°60'0 0.0
2016-Sep-26 02:31N 48°32' W 122°60'0 0.0
2016-Sep-26 01:31N 48°32' W 122°60'0 0.0
2016-Sep-26 00:31N 48°32' W 122°60'0 0.0
2016-Sep-25 21:31N 48°32' W 122°60'0 0.0
2016-Sep-25 17:28N 48°32' W 122°60'0 0.0
2016-Sep-25 16:31N 48°32' W 122°60'0 0.0
2016-Sep-25 15:22N 48°32' W 122°60'0 0.0
2016-Sep-25 14:32N 48°32' W 122°60'0 0.0
2016-Sep-25 12:25N 48°32' W 122°60'0 0.0
2016-Sep-25 11:31N 48°32' W 122°60'0 0.0
2016-Sep-25 10:31N 48°32' W 122°60'0 0.0
2016-Sep-25 09:31N 48°32' W 122°60'0 0.0
2016-Sep-25 07:33N 48°32' W 122°60'0 0.0
2016-Sep-25 04:31N 48°32' W 122°60'0 0.0
2016-Sep-25 00:32N 48°32' W 122°60'0 0.0
2016-Sep-24 22:32N 48°32' W 122°60'0 0.0
2016-Sep-24 21:32N 48°32' W 122°60'0 0.0
2016-Sep-24 19:32N 48°32' W 122°60'0 0.0
2016-Sep-24 18:32N 48°32' W 122°60'0 0.0
2016-Sep-24 17:32N 48°32' W 122°60'0 0.0
2016-Sep-24 16:32N 48°32' W 122°60'0 0.0
2016-Sep-24 14:32N 48°32' W 122°60'0 0.0
2016-Sep-24 12:32N 48°32' W 122°60'0 0.0
2016-Sep-24 10:32N 48°32' W 122°60'0 0.0
2016-Sep-24 09:32N 48°32' W 122°60'0 0.0
2016-Sep-24 03:32N 48°32' W 122°60'0 0.0
2016-Sep-24 02:32N 48°32' W 122°60'0 0.0
2016-Sep-24 01:32N 48°32' W 122°60'0 0.0
2016-Sep-24 00:32N 48°32' W 122°60'0 0.0
2016-Sep-23 19:32N 48°32' W 122°60'0 0.0
2016-Sep-23 17:32N 48°32' W 122°60'0 0.0
2016-Sep-23 16:32N 48°32' W 122°60'0 0.0
2016-Sep-23 15:30N 48°32' W 122°60'0 0.0
2016-Sep-23 13:32N 48°32' W 122°60'0 0.0
2016-Sep-23 09:32N 48°32' W 122°60'0 0.0
2016-Sep-23 06:32N 48°32' W 122°60'0 0.0
2016-Sep-23 04:32N 48°32' W 122°60'0 0.0
2016-Sep-23 03:32N 48°32' W 122°60'0 0.0
2016-Sep-23 02:32N 48°32' W 122°60'0 0.0
2016-Sep-23 01:32N 48°32' W 122°60'0 0.0
2016-Sep-23 00:31N 48°32' W 122°60'0 0.0
2016-Sep-22 23:31N 48°32' W 122°60'0 0.0
2016-Sep-22 20:31N 48°32' W 123°00'0 0.0
2016-Sep-22 12:32N 48°32' W 122°60'0 0.0
2016-Sep-22 04:32N 48°32' W 122°60'0 0.0
2016-Sep-22 03:32N 48°32' W 122°60'0 0.0
2016-Sep-22 00:32N 48°32' W 122°60'0 0.0
2016-Sep-21 23:32N 48°32' W 122°60'0 0.0
2016-Sep-21 22:32N 48°32' W 122°60'0 0.0
2016-Sep-21 19:33N 48°32' W 122°60'10 3.3
2016-Sep-21 16:32N 48°34' W 122°45'10 1.4
2016-Sep-21 09:32N 48°32' W 122°60'0 0.0
2016-Sep-21 08:32N 48°32' W 122°60'  

Dump ship's entire track history